sensor_id;sensor_type;location;lat;lon;timestamp;noise_LAeq;noise_LA_min;noise_LA_max;noise_LA01;noise_LA95
76339;Laerm;26644;50.248;19.032;2022-12-29T00:00:00;30.97;29.61;35.23;;
76339;Laerm;26644;50.248;19.032;2022-12-29T00:01:14;30.90;29.46;33.92;;
76339;Laerm;26644;50.248;19.032;2022-12-29T00:02:17;30.55;29.22;34.45;;
76339;Laerm;26644;50.248;19.032;2022-12-29T00:03:20;30.47;29.14;32.46;;
76339;Laerm;26644;50.248;19.032;2022-12-29T00:04:22;30.72;29.61;32.06;;
76339;Laerm;26644;50.248;19.032;2022-12-29T00:05:25;31.33;30.04;35.20;;
76339;Laerm;26644;50.248;19.032;2022-12-29T00:06:28;31.17;29.66;36.59;;
76339;Laerm;26644;50.248;19.032;2022-12-29T00:07:31;31.17;29.61;34.02;;
76339;Laerm;26644;50.248;19.032;2022-12-29T00:08:33;31.12;29.54;34.85;;
76339;Laerm;26644;50.248;19.032;2022-12-29T00:09:42;31.62;29.71;35.44;;
76339;Laerm;26644;50.248;19.032;2022-12-29T00:10:45;30.70;29.38;32.19;;
76339;Laerm;26644;50.248;19.032;2022-12-29T00:11:49;30.63;29.39;36.42;;
76339;Laerm;26644;50.248;19.032;2022-12-29T00:12:52;31.17;29.77;39.24;;
76339;Laerm;26644;50.248;19.032;2022-12-29T00:14:12;31.24;29.68;34.29;;
76339;Laerm;26644;50.248;19.032;2022-12-29T00:15:33;30.79;29.37;36.24;;
76339;Laerm;26644;50.248;19.032;2022-12-29T00:16:43;30.49;29.07;36.69;;
76339;Laerm;26644;50.248;19.032;2022-12-29T00:17:47;30.76;29.46;40.87;;
76339;Laerm;26644;50.248;19.032;2022-12-29T00:18:49;30.94;29.50;33.57;;
76339;Laerm;26644;50.248;19.032;2022-12-29T00:19:52;30.70;29.37;34.39;;
76339;Laerm;26644;50.248;19.032;2022-12-29T00:21:15;31.29;29.74;34.88;;
76339;Laerm;26644;50.248;19.032;2022-12-29T00:22:35;30.53;29.01;34.79;;
76339;Laerm;26644;50.248;19.032;2022-12-29T00:23:56;30.57;29.16;33.53;;
76339;Laerm;26644;50.248;19.032;2022-12-29T00:25:16;30.79;29.03;38.11;;
76339;Laerm;26644;50.248;19.032;2022-12-29T00:26:36;30.74;29.28;33.46;;
76339;Laerm;26644;50.248;19.032;2022-12-29T00:27:58;30.63;29.12;33.96;;
76339;Laerm;26644;50.248;19.032;2022-12-29T00:29:19;30.69;29.10;34.44;;
76339;Laerm;26644;50.248;19.032;2022-12-29T00:30:39;31.08;29.29;34.95;;
76339;Laerm;26644;50.248;19.032;2022-12-29T00:31:59;30.37;29.15;34.82;;
76339;Laerm;26644;50.248;19.032;2022-12-29T00:33:22;30.82;29.35;36.81;;
76339;Laerm;26644;50.248;19.032;2022-12-29T00:34:45;30.46;28.96;34.06;;
76339;Laerm;26644;50.248;19.032;2022-12-29T00:36:13;30.41;29.19;33.85;;
76339;Laerm;26644;50.248;19.032;2022-12-29T00:37:17;31.14;29.64;34.35;;
76339;Laerm;26644;50.248;19.032;2022-12-29T00:38:49;30.84;29.51;36.27;;
76339;Laerm;26644;50.248;19.032;2022-12-29T00:40:12;30.89;29.41;37.33;;
76339;Laerm;26644;50.248;19.032;2022-12-29T00:41:32;31.33;29.55;34.59;;
76339;Laerm;26644;50.248;19.032;2022-12-29T00:42:52;30.97;29.27;39.60;;
76339;Laerm;26644;50.248;19.032;2022-12-29T00:44:14;30.76;29.06;34.99;;
76339;Laerm;26644;50.248;19.032;2022-12-29T00:45:19;30.91;29.52;36.18;;
76339;Laerm;26644;50.248;19.032;2022-12-29T00:46:22;30.74;29.08;37.45;;
76339;Laerm;26644;50.248;19.032;2022-12-29T00:47:25;30.43;29.14;38.10;;
76339;Laerm;26644;50.248;19.032;2022-12-29T00:48:27;30.85;29.26;32.88;;
76339;Laerm;26644;50.248;19.032;2022-12-29T00:49:47;30.97;29.13;34.91;;
76339;Laerm;26644;50.248;19.032;2022-12-29T00:50:56;30.41;28.98;31.90;;
76339;Laerm;26644;50.248;19.032;2022-12-29T00:52:01;30.83;29.27;33.80;;
76339;Laerm;26644;50.248;19.032;2022-12-29T00:53:05;30.95;29.08;33.86;;
76339;Laerm;26644;50.248;19.032;2022-12-29T00:54:07;30.79;29.09;33.84;;
76339;Laerm;26644;50.248;19.032;2022-12-29T00:55:09;30.35;28.95;36.35;;
76339;Laerm;26644;50.248;19.032;2022-12-29T00:56:13;31.12;29.69;37.94;;
76339;Laerm;26644;50.248;19.032;2022-12-29T00:57:15;30.80;29.35;33.98;;
76339;Laerm;26644;50.248;19.032;2022-12-29T00:58:19;31.47;29.89;34.87;;
76339;Laerm;26644;50.248;19.032;2022-12-29T00:59:24;30.74;29.40;41.31;;
76339;Laerm;26644;50.248;19.032;2022-12-29T01:00:27;30.75;29.44;34.47;;
76339;Laerm;26644;50.248;19.032;2022-12-29T01:01:31;30.79;29.25;34.57;;
76339;Laerm;26644;50.248;19.032;2022-12-29T01:02:34;30.78;29.28;32.50;;
76339;Laerm;26644;50.248;19.032;2022-12-29T01:03:38;30.56;29.24;32.36;;
76339;Laerm;26644;50.248;19.032;2022-12-29T01:04:41;30.99;29.62;33.69;;
76339;Laerm;26644;50.248;19.032;2022-12-29T01:05:44;30.97;29.47;33.72;;
76339;Laerm;26644;50.248;19.032;2022-12-29T01:06:49;30.72;29.36;32.65;;
76339;Laerm;26644;50.248;19.032;2022-12-29T01:07:52;31.13;29.65;38.33;;
76339;Laerm;26644;50.248;19.032;2022-12-29T01:08:54;31.06;29.58;34.71;;
76339;Laerm;26644;50.248;19.032;2022-12-29T01:10:10;30.96;29.49;34.98;;
76339;Laerm;26644;50.248;19.032;2022-12-29T01:11:13;30.79;29.26;36.05;;
76339;Laerm;26644;50.248;19.032;2022-12-29T01:12:16;30.87;29.64;33.16;;
76339;Laerm;26644;50.248;19.032;2022-12-29T01:13:39;30.84;29.50;34.23;;
76339;Laerm;26644;50.248;19.032;2022-12-29T01:14:43;31.32;29.55;35.96;;
76339;Laerm;26644;50.248;19.032;2022-12-29T01:15:50;30.87;29.36;38.81;;
76339;Laerm;26644;50.248;19.032;2022-12-29T01:16:53;30.61;29.13;35.89;;
76339;Laerm;26644;50.248;19.032;2022-12-29T01:17:57;30.71;29.33;35.61;;
76339;Laerm;26644;50.248;19.032;2022-12-29T01:18:59;30.54;29.29;32.29;;
76339;Laerm;26644;50.248;19.032;2022-12-29T01:20:04;30.70;29.41;33.00;;
76339;Laerm;26644;50.248;19.032;2022-12-29T01:21:07;31.13;29.87;37.33;;
76339;Laerm;26644;50.248;19.032;2022-12-29T01:22:09;30.87;29.19;37.66;;
76339;Laerm;26644;50.248;19.032;2022-12-29T01:23:13;30.85;29.28;32.39;;
76339;Laerm;26644;50.248;19.032;2022-12-29T01:24:16;30.84;29.47;33.86;;
76339;Laerm;26644;50.248;19.032;2022-12-29T01:25:19;30.91;29.41;35.29;;
76339;Laerm;26644;50.248;19.032;2022-12-29T01:26:21;30.98;29.08;36.68;;
76339;Laerm;26644;50.248;19.032;2022-12-29T01:27:27;31.03;29.36;43.25;;
76339;Laerm;26644;50.248;19.032;2022-12-29T01:28:29;31.21;29.37;41.55;;
76339;Laerm;26644;50.248;19.032;2022-12-29T01:29:34;31.90;30.24;37.68;;
76339;Laerm;26644;50.248;19.032;2022-12-29T01:30:38;31.79;29.78;44.02;;
76339;Laerm;26644;50.248;19.032;2022-12-29T01:31:40;30.86;29.26;34.79;;
76339;Laerm;26644;50.248;19.032;2022-12-29T01:32:44;31.99;29.86;42.92;;
76339;Laerm;26644;50.248;19.032;2022-12-29T01:33:46;31.35;29.69;38.93;;
76339;Laerm;26644;50.248;19.032;2022-12-29T01:34:49;30.92;29.41;36.63;;
76339;Laerm;26644;50.248;19.032;2022-12-29T01:35:51;31.09;29.31;36.27;;
76339;Laerm;26644;50.248;19.032;2022-12-29T01:36:53;30.50;29.08;34.65;;
76339;Laerm;26644;50.248;19.032;2022-12-29T01:37:55;30.69;29.14;38.12;;
76339;Laerm;26644;50.248;19.032;2022-12-29T01:38:59;30.82;29.30;37.99;;
76339;Laerm;26644;50.248;19.032;2022-12-29T01:40:01;31.71;29.70;39.42;;
76339;Laerm;26644;50.248;19.032;2022-12-29T01:41:08;31.29;29.60;38.47;;
76339;Laerm;26644;50.248;19.032;2022-12-29T01:42:18;31.39;29.77;36.05;;
76339;Laerm;26644;50.248;19.032;2022-12-29T01:43:21;31.07;29.65;35.60;;
76339;Laerm;26644;50.248;19.032;2022-12-29T01:44:54;31.20;29.51;33.58;;
76339;Laerm;26644;50.248;19.032;2022-12-29T01:45:59;30.64;29.51;31.95;;
76339;Laerm;26644;50.248;19.032;2022-12-29T01:47:01;30.65;29.24;35.11;;
76339;Laerm;26644;50.248;19.032;2022-12-29T01:48:10;30.53;29.18;34.49;;
76339;Laerm;26644;50.248;19.032;2022-12-29T01:49:21;30.55;29.21;35.95;;
76339;Laerm;26644;50.248;19.032;2022-12-29T01:50:32;30.87;29.31;33.05;;
76339;Laerm;26644;50.248;19.032;2022-12-29T01:51:42;30.72;29.18;44.52;;
76339;Laerm;26644;50.248;19.032;2022-12-29T01:52:56;30.80;29.10;34.98;;
76339;Laerm;26644;50.248;19.032;2022-12-29T01:54:09;30.37;29.15;32.02;;
76339;Laerm;26644;50.248;19.032;2022-12-29T01:55:14;30.40;29.25;31.78;;
76339;Laerm;26644;50.248;19.032;2022-12-29T01:56:22;30.58;29.08;32.56;;
76339;Laerm;26644;50.248;19.032;2022-12-29T01:57:33;30.78;29.49;33.27;;
76339;Laerm;26644;50.248;19.032;2022-12-29T01:58:44;30.99;29.36;33.08;;
76339;Laerm;26644;50.248;19.032;2022-12-29T01:59:55;31.32;29.20;35.70;;
76339;Laerm;26644;50.248;19.032;2022-12-29T02:01:00;31.09;29.57;33.87;;
76339;Laerm;26644;50.248;19.032;2022-12-29T02:02:05;31.14;29.76;32.90;;
76339;Laerm;26644;50.248;19.032;2022-12-29T02:03:11;30.48;29.36;31.77;;
76339;Laerm;26644;50.248;19.032;2022-12-29T02:04:14;31.16;29.69;33.18;;
76339;Laerm;26644;50.248;19.032;2022-12-29T02:05:27;30.52;29.35;31.63;;
76339;Laerm;26644;50.248;19.032;2022-12-29T02:06:41;30.92;29.23;33.04;;
76339;Laerm;26644;50.248;19.032;2022-12-29T02:07:48;30.25;29.03;31.38;;
76339;Laerm;26644;50.248;19.032;2022-12-29T02:08:56;30.91;29.44;33.32;;
76339;Laerm;26644;50.248;19.032;2022-12-29T02:10:02;30.43;29.17;31.67;;
76339;Laerm;26644;50.248;19.032;2022-12-29T02:11:06;30.37;29.22;31.65;;
76339;Laerm;26644;50.248;19.032;2022-12-29T02:12:10;30.52;29.20;31.82;;
76339;Laerm;26644;50.248;19.032;2022-12-29T02:13:16;31.28;29.88;32.86;;
76339;Laerm;26644;50.248;19.032;2022-12-29T02:14:20;31.18;29.94;32.98;;
76339;Laerm;26644;50.248;19.032;2022-12-29T02:15:45;30.51;29.32;32.03;;
76339;Laerm;26644;50.248;19.032;2022-12-29T02:17:08;30.49;29.25;31.64;;
76339;Laerm;26644;50.248;19.032;2022-12-29T02:18:32;30.61;29.53;31.93;;
76339;Laerm;26644;50.248;19.032;2022-12-29T02:22:03;30.75;29.27;32.65;;
76339;Laerm;26644;50.248;19.032;2022-12-29T02:23:59;30.82;29.52;32.47;;
76339;Laerm;26644;50.248;19.032;2022-12-29T02:25:58;30.83;29.36;33.69;;
76339;Laerm;26644;50.248;19.032;2022-12-29T02:28:01;31.43;29.57;37.13;;
76339;Laerm;26644;50.248;19.032;2022-12-29T02:29:56;30.70;29.08;32.73;;
76339;Laerm;26644;50.248;19.032;2022-12-29T02:32:52;30.31;29.24;31.50;;
76339;Laerm;26644;50.248;19.032;2022-12-29T02:34:15;31.10;29.62;33.61;;
76339;Laerm;26644;50.248;19.032;2022-12-29T02:35:37;30.82;29.62;32.41;;
76339;Laerm;26644;50.248;19.032;2022-12-29T02:37:06;30.83;29.43;33.66;;
76339;Laerm;26644;50.248;19.032;2022-12-29T02:38:28;30.70;29.18;32.56;;
76339;Laerm;26644;50.248;19.032;2022-12-29T02:39:43;30.58;29.07;32.71;;
76339;Laerm;26644;50.248;19.032;2022-12-29T02:41:54;31.21;29.06;34.88;;
76339;Laerm;26644;50.248;19.032;2022-12-29T02:43:42;31.18;29.58;34.10;;
76339;Laerm;26644;50.248;19.032;2022-12-29T02:45:03;31.06;29.32;37.05;;
76339;Laerm;26644;50.248;19.032;2022-12-29T02:46:20;31.81;29.80;37.97;;
76339;Laerm;26644;50.248;19.032;2022-12-29T02:47:49;31.22;29.72;35.55;;
76339;Laerm;26644;50.248;19.032;2022-12-29T02:49:18;31.32;29.63;38.35;;
76339;Laerm;26644;50.248;19.032;2022-12-29T02:50:34;30.84;29.57;33.03;;
76339;Laerm;26644;50.248;19.032;2022-12-29T02:51:51;31.05;29.48;33.50;;
76339;Laerm;26644;50.248;19.032;2022-12-29T02:53:04;30.91;29.44;35.25;;
76339;Laerm;26644;50.248;19.032;2022-12-29T02:54:22;31.16;29.74;34.36;;
76339;Laerm;26644;50.248;19.032;2022-12-29T02:56:00;31.06;29.46;33.51;;
76339;Laerm;26644;50.248;19.032;2022-12-29T02:57:32;30.78;29.36;33.04;;
76339;Laerm;26644;50.248;19.032;2022-12-29T02:58:37;30.59;29.39;33.67;;
76339;Laerm;26644;50.248;19.032;2022-12-29T02:59:40;30.69;29.42;34.79;;
76339;Laerm;26644;50.248;19.032;2022-12-29T03:01:03;30.31;28.97;31.70;;
76339;Laerm;26644;50.248;19.032;2022-12-29T03:02:33;30.60;29.26;33.70;;
76339;Laerm;26644;50.248;19.032;2022-12-29T03:03:59;31.04;29.65;33.31;;
76339;Laerm;26644;50.248;19.032;2022-12-29T03:05:22;30.89;29.08;32.87;;
76339;Laerm;26644;50.248;19.032;2022-12-29T03:06:50;31.13;29.48;33.76;;
76339;Laerm;26644;50.248;19.032;2022-12-29T03:08:09;31.12;29.63;32.94;;
76339;Laerm;26644;50.248;19.032;2022-12-29T03:09:29;30.63;29.25;32.04;;
76339;Laerm;26644;50.248;19.032;2022-12-29T03:10:49;30.57;29.33;31.87;;
76339;Laerm;26644;50.248;19.032;2022-12-29T03:12:10;30.60;29.33;31.84;;
76339;Laerm;26644;50.248;19.032;2022-12-29T03:13:28;30.64;29.33;32.50;;
76339;Laerm;26644;50.248;19.032;2022-12-29T03:15:02;30.86;29.61;32.56;;
76339;Laerm;26644;50.248;19.032;2022-12-29T03:16:35;31.02;29.65;33.08;;
76339;Laerm;26644;50.248;19.032;2022-12-29T03:17:56;31.31;29.67;33.54;;
76339;Laerm;26644;50.248;19.032;2022-12-29T03:19:10;30.98;29.49;33.19;;
76339;Laerm;26644;50.248;19.032;2022-12-29T03:20:26;31.17;29.71;33.74;;
76339;Laerm;26644;50.248;19.032;2022-12-29T03:21:40;31.01;29.59;33.65;;
76339;Laerm;26644;50.248;19.032;2022-12-29T03:23:08;31.37;29.83;34.46;;
76339;Laerm;26644;50.248;19.032;2022-12-29T03:24:14;31.12;29.72;33.08;;
76339;Laerm;26644;50.248;19.032;2022-12-29T03:25:27;31.17;29.91;33.14;;
76339;Laerm;26644;50.248;19.032;2022-12-29T03:26:37;31.62;29.68;34.78;;
76339;Laerm;26644;50.248;19.032;2022-12-29T03:27:44;31.47;30.25;32.97;;
76339;Laerm;26644;50.248;19.032;2022-12-29T03:28:53;31.04;29.84;32.64;;
76339;Laerm;26644;50.248;19.032;2022-12-29T03:30:05;31.18;29.95;32.59;;
76339;Laerm;26644;50.248;19.032;2022-12-29T03:31:13;31.39;29.79;33.40;;
76339;Laerm;26644;50.248;19.032;2022-12-29T03:32:17;30.87;29.69;32.05;;
76339;Laerm;26644;50.248;19.032;2022-12-29T03:33:28;30.88;29.62;32.44;;
76339;Laerm;26644;50.248;19.032;2022-12-29T03:34:37;31.00;29.50;33.34;;
76339;Laerm;26644;50.248;19.032;2022-12-29T03:35:45;31.05;29.83;34.24;;
76339;Laerm;26644;50.248;19.032;2022-12-29T03:36:58;31.48;29.94;34.89;;
76339;Laerm;26644;50.248;19.032;2022-12-29T03:38:15;31.36;29.92;33.49;;
76339;Laerm;26644;50.248;19.032;2022-12-29T03:39:23;30.69;29.43;31.84;;
76339;Laerm;26644;50.248;19.032;2022-12-29T03:40:29;31.15;29.88;32.59;;
76339;Laerm;26644;50.248;19.032;2022-12-29T03:41:35;31.60;29.93;33.71;;
76339;Laerm;26644;50.248;19.032;2022-12-29T03:42:41;31.72;30.00;33.94;;
76339;Laerm;26644;50.248;19.032;2022-12-29T03:43:43;31.28;30.04;37.69;;
76339;Laerm;26644;50.248;19.032;2022-12-29T03:44:47;30.91;29.53;32.39;;
76339;Laerm;26644;50.248;19.032;2022-12-29T03:45:50;31.10;29.76;32.70;;
76339;Laerm;26644;50.248;19.032;2022-12-29T03:46:54;31.78;30.30;33.93;;
76339;Laerm;26644;50.248;19.032;2022-12-29T03:47:56;31.64;30.02;33.45;;
76339;Laerm;26644;50.248;19.032;2022-12-29T03:49:00;31.20;29.90;32.78;;
76339;Laerm;26644;50.248;19.032;2022-12-29T03:50:02;31.15;29.68;32.52;;
76339;Laerm;26644;50.248;19.032;2022-12-29T03:51:09;31.57;29.97;33.80;;
76339;Laerm;26644;50.248;19.032;2022-12-29T03:52:12;31.44;30.20;34.51;;
76339;Laerm;26644;50.248;19.032;2022-12-29T03:53:18;31.36;29.94;34.10;;
76339;Laerm;26644;50.248;19.032;2022-12-29T03:54:20;31.30;29.86;34.58;;
76339;Laerm;26644;50.248;19.032;2022-12-29T03:55:23;31.28;29.92;39.52;;
76339;Laerm;26644;50.248;19.032;2022-12-29T03:56:25;31.65;30.04;33.40;;
76339;Laerm;26644;50.248;19.032;2022-12-29T03:57:29;31.66;30.31;33.07;;
76339;Laerm;26644;50.248;19.032;2022-12-29T03:58:38;31.41;30.04;32.88;;
76339;Laerm;26644;50.248;19.032;2022-12-29T03:59:49;31.32;29.76;32.75;;
76339;Laerm;26644;50.248;19.032;2022-12-29T04:00:50;30.82;29.73;32.67;;
76339;Laerm;26644;50.248;19.032;2022-12-29T04:01:53;31.24;29.73;33.68;;
76339;Laerm;26644;50.248;19.032;2022-12-29T04:02:57;31.48;29.49;34.02;;
76339;Laerm;26644;50.248;19.032;2022-12-29T04:04:01;31.30;30.03;33.05;;
76339;Laerm;26644;50.248;19.032;2022-12-29T04:05:07;31.51;30.05;37.20;;
76339;Laerm;26644;50.248;19.032;2022-12-29T04:06:10;31.63;30.09;33.65;;
76339;Laerm;26644;50.248;19.032;2022-12-29T04:07:35;31.07;29.37;36.09;;
76339;Laerm;26644;50.248;19.032;2022-12-29T04:08:41;31.72;30.18;45.24;;
76339;Laerm;26644;50.248;19.032;2022-12-29T04:09:43;31.78;30.06;34.37;;
76339;Laerm;26644;50.248;19.032;2022-12-29T04:10:51;31.26;30.06;33.13;;
76339;Laerm;26644;50.248;19.032;2022-12-29T04:11:56;31.76;30.03;33.71;;
76339;Laerm;26644;50.248;19.032;2022-12-29T04:12:59;31.94;30.72;33.81;;
76339;Laerm;26644;50.248;19.032;2022-12-29T04:14:02;31.80;30.17;35.27;;
76339;Laerm;26644;50.248;19.032;2022-12-29T04:15:08;32.25;30.57;34.96;;
76339;Laerm;26644;50.248;19.032;2022-12-29T04:16:10;32.45;30.51;35.08;;
76339;Laerm;26644;50.248;19.032;2022-12-29T04:17:13;31.25;29.93;32.62;;
76339;Laerm;26644;50.248;19.032;2022-12-29T04:18:17;31.87;30.10;33.45;;
76339;Laerm;26644;50.248;19.032;2022-12-29T04:19:22;32.10;30.21;34.69;;
76339;Laerm;26644;50.248;19.032;2022-12-29T04:20:25;32.15;30.04;34.23;;
76339;Laerm;26644;50.248;19.032;2022-12-29T04:21:45;32.14;30.39;34.54;;
76339;Laerm;26644;50.248;19.032;2022-12-29T04:22:48;31.65;30.38;32.93;;
76339;Laerm;26644;50.248;19.032;2022-12-29T04:23:50;31.86;30.37;33.66;;
76339;Laerm;26644;50.248;19.032;2022-12-29T04:24:54;31.80;30.59;33.25;;
76339;Laerm;26644;50.248;19.032;2022-12-29T04:25:56;31.88;30.14;33.81;;
76339;Laerm;26644;50.248;19.032;2022-12-29T04:27:00;31.72;30.39;40.36;;
76339;Laerm;26644;50.248;19.032;2022-12-29T04:28:08;31.96;30.20;37.58;;
76339;Laerm;26644;50.248;19.032;2022-12-29T04:29:25;31.73;30.10;33.38;;
76339;Laerm;26644;50.248;19.032;2022-12-29T04:30:47;31.38;30.11;35.93;;
76339;Laerm;26644;50.248;19.032;2022-12-29T04:32:06;31.83;30.49;33.55;;
76339;Laerm;26644;50.248;19.032;2022-12-29T04:33:13;32.08;30.74;36.79;;
76339;Laerm;26644;50.248;19.032;2022-12-29T04:34:17;32.01;30.47;35.84;;
76339;Laerm;26644;50.248;19.032;2022-12-29T04:35:23;32.04;30.64;34.08;;
76339;Laerm;26644;50.248;19.032;2022-12-29T04:36:26;32.37;30.42;36.34;;
76339;Laerm;26644;50.248;19.032;2022-12-29T04:37:29;32.10;30.49;33.72;;
76339;Laerm;26644;50.248;19.032;2022-12-29T04:38:32;32.13;30.08;34.79;;
76339;Laerm;26644;50.248;19.032;2022-12-29T04:39:38;31.99;30.38;34.07;;
76339;Laerm;26644;50.248;19.032;2022-12-29T04:40:43;31.73;30.27;33.29;;
76339;Laerm;26644;50.248;19.032;2022-12-29T04:41:47;32.03;30.39;36.48;;
76339;Laerm;26644;50.248;19.032;2022-12-29T04:42:54;31.99;30.44;36.87;;
76339;Laerm;26644;50.248;19.032;2022-12-29T04:43:58;32.47;30.43;35.80;;
76339;Laerm;26644;50.248;19.032;2022-12-29T04:45:18;32.60;30.75;34.77;;
76339;Laerm;26644;50.248;19.032;2022-12-29T04:46:35;32.44;30.53;34.30;;
76339;Laerm;26644;50.248;19.032;2022-12-29T04:47:43;32.11;30.27;34.30;;
76339;Laerm;26644;50.248;19.032;2022-12-29T04:49:17;31.82;30.28;33.98;;
76339;Laerm;26644;50.248;19.032;2022-12-29T04:50:29;32.31;30.57;35.18;;
76339;Laerm;26644;50.248;19.032;2022-12-29T04:51:40;31.65;30.15;33.36;;
76339;Laerm;26644;50.248;19.032;2022-12-29T04:52:46;31.93;30.57;33.58;;
76339;Laerm;26644;50.248;19.032;2022-12-29T04:53:49;32.17;30.48;33.58;;
76339;Laerm;26644;50.248;19.032;2022-12-29T04:54:52;32.54;29.98;42.65;;
76339;Laerm;26644;50.248;19.032;2022-12-29T04:55:55;32.92;30.99;43.24;;
76339;Laerm;26644;50.248;19.032;2022-12-29T04:56:58;32.18;30.61;33.97;;
76339;Laerm;26644;50.248;19.032;2022-12-29T04:58:01;32.47;30.96;36.27;;
76339;Laerm;26644;50.248;19.032;2022-12-29T04:59:07;32.23;30.52;34.99;;
76339;Laerm;26644;50.248;19.032;2022-12-29T05:00:11;32.18;30.45;34.25;;
76339;Laerm;26644;50.248;19.032;2022-12-29T05:01:15;32.65;30.33;35.50;;
76339;Laerm;26644;50.248;19.032;2022-12-29T05:02:17;32.21;30.71;34.04;;
76339;Laerm;26644;50.248;19.032;2022-12-29T05:03:22;32.41;30.65;35.09;;
76339;Laerm;26644;50.248;19.032;2022-12-29T05:04:25;32.74;31.30;38.23;;
76339;Laerm;26644;50.248;19.032;2022-12-29T05:05:29;32.64;30.95;37.48;;
76339;Laerm;26644;50.248;19.032;2022-12-29T05:06:32;35.85;31.07;52.39;;
76339;Laerm;26644;50.248;19.032;2022-12-29T05:07:36;32.30;30.55;34.10;;
76339;Laerm;26644;50.248;19.032;2022-12-29T05:08:39;33.48;31.53;42.12;;
76339;Laerm;26644;50.248;19.032;2022-12-29T05:09:45;41.46;31.45;66.58;;
76339;Laerm;26644;50.248;19.032;2022-12-29T05:10:49;33.53;31.18;46.38;;
76339;Laerm;26644;50.248;19.032;2022-12-29T05:11:52;34.58;31.40;45.23;;
76339;Laerm;26644;50.248;19.032;2022-12-29T05:12:54;33.33;30.96;37.84;;
76339;Laerm;26644;50.248;19.032;2022-12-29T05:13:58;32.23;30.75;34.08;;
76339;Laerm;26644;50.248;19.032;2022-12-29T05:15:01;32.22;30.69;34.20;;
76339;Laerm;26644;50.248;19.032;2022-12-29T05:16:05;33.17;30.60;40.18;;
76339;Laerm;26644;50.248;19.032;2022-12-29T05:17:06;32.68;31.19;35.66;;
76339;Laerm;26644;50.248;19.032;2022-12-29T05:18:10;33.21;31.37;35.47;;
76339;Laerm;26644;50.248;19.032;2022-12-29T05:19:12;33.08;31.40;36.65;;
76339;Laerm;26644;50.248;19.032;2022-12-29T05:20:16;33.06;30.95;37.19;;
76339;Laerm;26644;50.248;19.032;2022-12-29T05:21:20;32.79;30.80;40.90;;
76339;Laerm;26644;50.248;19.032;2022-12-29T05:22:23;32.85;30.95;36.87;;
76339;Laerm;26644;50.248;19.032;2022-12-29T05:23:26;32.63;31.22;37.74;;
76339;Laerm;26644;50.248;19.032;2022-12-29T05:24:33;32.55;31.01;35.20;;
76339;Laerm;26644;50.248;19.032;2022-12-29T05:25:36;32.79;31.22;37.58;;
76339;Laerm;26644;50.248;19.032;2022-12-29T05:26:52;32.76;30.98;42.96;;
76339;Laerm;26644;50.248;19.032;2022-12-29T05:28:23;32.74;31.08;37.44;;
76339;Laerm;26644;50.248;19.032;2022-12-29T05:29:32;32.35;30.54;36.51;;
76339;Laerm;26644;50.248;19.032;2022-12-29T05:30:35;33.29;31.01;35.63;;
76339;Laerm;26644;50.248;19.032;2022-12-29T05:31:37;33.16;31.58;35.60;;
76339;Laerm;26644;50.248;19.032;2022-12-29T05:32:41;32.85;31.16;35.06;;
76339;Laerm;26644;50.248;19.032;2022-12-29T05:33:43;33.51;31.47;40.30;;
76339;Laerm;26644;50.248;19.032;2022-12-29T05:34:48;32.93;31.06;45.01;;
76339;Laerm;26644;50.248;19.032;2022-12-29T05:35:50;33.39;31.60;38.60;;
76339;Laerm;26644;50.248;19.032;2022-12-29T05:36:55;33.57;31.51;42.90;;
76339;Laerm;26644;50.248;19.032;2022-12-29T05:37:59;33.41;31.43;38.55;;
76339;Laerm;26644;50.248;19.032;2022-12-29T05:39:02;33.44;31.49;43.79;;
76339;Laerm;26644;50.248;19.032;2022-12-29T05:40:07;33.43;31.56;39.68;;
76339;Laerm;26644;50.248;19.032;2022-12-29T05:41:10;33.61;31.53;37.36;;
76339;Laerm;26644;50.248;19.032;2022-12-29T05:42:31;33.90;31.75;42.72;;
76339;Laerm;26644;50.248;19.032;2022-12-29T05:44:10;34.03;31.83;41.22;;
76339;Laerm;26644;50.248;19.032;2022-12-29T05:45:28;34.73;31.85;54.96;;
76339;Laerm;26644;50.248;19.032;2022-12-29T05:46:51;33.98;31.88;39.81;;
76339;Laerm;26644;50.248;19.032;2022-12-29T05:48:30;34.16;31.28;42.81;;
76339;Laerm;26644;50.248;19.032;2022-12-29T05:49:52;34.07;31.31;40.36;;
76339;Laerm;26644;50.248;19.032;2022-12-29T05:51:20;34.38;31.12;45.77;;
76339;Laerm;26644;50.248;19.032;2022-12-29T05:52:29;35.22;31.94;49.52;;
76339;Laerm;26644;50.248;19.032;2022-12-29T05:53:32;33.97;31.96;43.27;;
76339;Laerm;26644;50.248;19.032;2022-12-29T05:54:36;34.36;32.09;44.41;;
76339;Laerm;26644;50.248;19.032;2022-12-29T05:55:59;34.50;32.23;42.29;;
76339;Laerm;26644;50.248;19.032;2022-12-29T05:57:03;35.37;32.06;46.19;;
76339;Laerm;26644;50.248;19.032;2022-12-29T05:58:07;34.28;31.71;48.02;;
76339;Laerm;26644;50.248;19.032;2022-12-29T05:59:10;34.32;32.13;42.40;;
76339;Laerm;26644;50.248;19.032;2022-12-29T06:00:28;34.41;31.48;41.98;;
76339;Laerm;26644;50.248;19.032;2022-12-29T06:01:46;35.01;31.29;50.68;;
76339;Laerm;26644;50.248;19.032;2022-12-29T06:03:04;34.22;31.69;48.48;;
76339;Laerm;26644;50.248;19.032;2022-12-29T06:04:37;33.86;31.17;42.32;;
76339;Laerm;26644;50.248;19.032;2022-12-29T06:06:09;33.78;31.32;41.96;;
76339;Laerm;26644;50.248;19.032;2022-12-29T06:07:14;34.22;31.74;42.49;;
76339;Laerm;26644;50.248;19.032;2022-12-29T06:08:36;33.90;31.72;42.43;;
76339;Laerm;26644;50.248;19.032;2022-12-29T06:09:55;33.99;31.83;41.81;;
76339;Laerm;26644;50.248;19.032;2022-12-29T06:11:13;34.19;32.06;48.26;;
76339;Laerm;26644;50.248;19.032;2022-12-29T06:12:38;34.05;31.56;44.55;;
76339;Laerm;26644;50.248;19.032;2022-12-29T06:13:56;34.28;31.98;41.33;;
76339;Laerm;26644;50.248;19.032;2022-12-29T06:15:15;34.30;31.44;43.61;;
76339;Laerm;26644;50.248;19.032;2022-12-29T06:16:35;33.51;31.40;39.89;;
76339;Laerm;26644;50.248;19.032;2022-12-29T06:17:57;34.24;31.87;41.70;;
76339;Laerm;26644;50.248;19.032;2022-12-29T06:19:15;34.42;32.27;45.37;;
76339;Laerm;26644;50.248;19.032;2022-12-29T06:20:19;34.15;31.49;43.02;;
76339;Laerm;26644;50.248;19.032;2022-12-29T06:21:21;34.62;31.95;44.86;;
76339;Laerm;26644;50.248;19.032;2022-12-29T06:22:24;34.42;31.69;49.87;;
76339;Laerm;26644;50.248;19.032;2022-12-29T06:23:26;34.38;31.53;46.30;;
76339;Laerm;26644;50.248;19.032;2022-12-29T06:24:30;34.86;32.35;42.85;;
76339;Laerm;26644;50.248;19.032;2022-12-29T06:25:33;35.19;32.21;45.45;;
76339;Laerm;26644;50.248;19.032;2022-12-29T06:26:37;35.78;32.14;50.82;;
76339;Laerm;26644;50.248;19.032;2022-12-29T06:27:39;35.88;32.29;50.77;;
76339;Laerm;26644;50.248;19.032;2022-12-29T06:28:42;33.97;31.87;40.59;;
76339;Laerm;26644;50.248;19.032;2022-12-29T06:29:44;34.24;32.19;43.77;;
76339;Laerm;26644;50.248;19.032;2022-12-29T06:30:48;35.04;31.93;51.21;;
76339;Laerm;26644;50.248;19.032;2022-12-29T06:31:50;34.50;32.03;42.49;;
76339;Laerm;26644;50.248;19.032;2022-12-29T06:32:58;33.88;31.80;44.31;;